sensor_id;sensor_type;location;lat;lon;timestamp;pressure;altitude;pressure_sealevel;temperature;humidity
70781;BME280;59514;48.810;2.134;2022-08-19T00:01:45;100324.81;;;19.80;70.93
70781;BME280;59514;48.810;2.134;2022-08-19T00:04:13;100314.31;;;19.63;71.65
70781;BME280;59514;48.810;2.134;2022-08-19T00:06:40;100319.72;;;19.68;71.26
70781;BME280;59514;48.810;2.134;2022-08-19T00:09:09;100319.44;;;19.69;71.53
70781;BME280;59514;48.810;2.134;2022-08-19T00:11:36;100321.09;;;19.70;71.18
70781;BME280;59514;48.810;2.134;2022-08-19T00:14:03;100327.63;;;19.69;71.05
70781;BME280;59514;48.810;2.134;2022-08-19T00:16:28;100323.31;;;19.63;71.29
70781;BME280;59514;48.810;2.134;2022-08-19T00:18:54;100320.56;;;19.68;71.23
70781;BME280;59514;48.810;2.134;2022-08-19T00:21:24;100329.88;;;19.62;71.40
70781;BME280;59514;48.810;2.134;2022-08-19T00:23:49;100319.53;;;19.59;71.37
70781;BME280;59514;48.810;2.134;2022-08-19T00:26:15;100321.72;;;19.57;71.51
70781;BME280;59514;48.810;2.134;2022-08-19T00:28:40;100325.88;;;19.50;71.63
70781;BME280;59514;48.810;2.134;2022-08-19T00:31:07;100322.88;;;19.51;71.50
70781;BME280;59514;48.810;2.134;2022-08-19T00:33:33;100330.03;;;19.42;71.63
70781;BME280;59514;48.810;2.134;2022-08-19T00:36:03;100337.66;;;19.40;71.78
70781;BME280;59514;48.810;2.134;2022-08-19T00:38:29;100329.44;;;19.45;71.86
70781;BME280;59514;48.810;2.134;2022-08-19T00:40:55;100326.19;;;19.43;71.58
70781;BME280;59514;48.810;2.134;2022-08-19T00:43:25;100328.06;;;19.48;71.66
70781;BME280;59514;48.810;2.134;2022-08-19T00:45:51;100332.25;;;19.35;72.62
70781;BME280;59514;48.810;2.134;2022-08-19T00:48:18;100333.09;;;19.31;72.40
70781;BME280;59514;48.810;2.134;2022-08-19T00:50:44;100333.09;;;19.26;72.21
70781;BME280;59514;48.810;2.134;2022-08-19T00:53:16;100330.69;;;19.19;72.51
70781;BME280;59514;48.810;2.134;2022-08-19T00:55:48;100326.84;;;19.25;72.74
70781;BME280;59514;48.810;2.134;2022-08-19T00:58:19;100331.19;;;19.26;72.33
70781;BME280;59514;48.810;2.134;2022-08-19T01:00:45;100333.94;;;19.21;72.86
70781;BME280;59514;48.810;2.134;2022-08-19T01:03:14;100331.03;;;19.13;72.61
70781;BME280;59514;48.810;2.134;2022-08-19T01:05:42;100334.03;;;19.06;73.22
70781;BME280;59514;48.810;2.134;2022-08-19T01:08:09;100332.16;;;19.07;73.34
70781;BME280;59514;48.810;2.134;2022-08-19T01:10:54;100331.25;;;19.16;72.99
70781;BME280;59514;48.810;2.134;2022-08-19T01:13:23;100332.88;;;19.17;72.89
70781;BME280;59514;48.810;2.134;2022-08-19T01:15:56;100330.19;;;19.12;72.93
70781;BME280;59514;48.810;2.134;2022-08-19T01:18:23;100332.91;;;19.12;73.58
70781;BME280;59514;48.810;2.134;2022-08-19T01:20:49;100328.06;;;19.04;73.27
70781;BME280;59514;48.810;2.134;2022-08-19T01:23:15;100322.69;;;18.94;74.02
70781;BME280;59514;48.810;2.134;2022-08-19T01:25:45;100329.44;;;19.07;73.66
70781;BME280;59514;48.810;2.134;2022-08-19T01:28:29;100334.34;;;19.05;73.26
70781;BME280;59514;48.810;2.134;2022-08-19T01:30:55;100339.00;;;18.94;73.74
70781;BME280;59514;48.810;2.134;2022-08-19T01:33:21;100345.63;;;18.78;74.59
70781;BME280;59514;48.810;2.134;2022-08-19T01:35:47;100349.44;;;18.77;74.76
70781;BME280;59514;48.810;2.134;2022-08-19T01:38:26;100343.97;;;18.87;74.17
70781;BME280;59514;48.810;2.134;2022-08-19T01:40:52;100347.06;;;18.60;75.20
70781;BME280;59514;48.810;2.134;2022-08-19T01:43:18;100346.50;;;18.68;75.07
70781;BME280;59514;48.810;2.134;2022-08-19T01:45:44;100343.47;;;18.70;74.69
70781;BME280;59514;48.810;2.134;2022-08-19T01:48:10;100338.56;;;18.77;74.37
70781;BME280;59514;48.810;2.134;2022-08-19T01:50:36;100340.75;;;18.75;74.55
70781;BME280;59514;48.810;2.134;2022-08-19T01:53:04;100336.69;;;18.67;75.11
70781;BME280;59514;48.810;2.134;2022-08-19T01:55:30;100339.22;;;18.39;76.87
70781;BME280;59514;48.810;2.134;2022-08-19T01:57:58;100343.91;;;18.23;76.94
70781;BME280;59514;48.810;2.134;2022-08-19T02:00:26;100346.88;;;18.12;77.30
70781;BME280;59514;48.810;2.134;2022-08-19T02:02:53;100346.31;;;18.25;76.73
70781;BME280;59514;48.810;2.134;2022-08-19T02:05:18;100344.16;;;18.27;77.29
70781;BME280;59514;48.810;2.134;2022-08-19T02:07:46;100351.19;;;18.48;76.02
70781;BME280;59514;48.810;2.134;2022-08-19T02:10:15;100341.44;;;18.22;76.96
70781;BME280;59514;48.810;2.134;2022-08-19T02:12:42;100348.44;;;18.38;76.63
70781;BME280;59514;48.810;2.134;2022-08-19T02:15:08;100344.66;;;18.39;76.21
70781;BME280;59514;48.810;2.134;2022-08-19T02:17:33;100343.88;;;18.43;76.31
70781;BME280;59514;48.810;2.134;2022-08-19T02:19:59;100348.44;;;18.38;75.88
70781;BME280;59514;48.810;2.134;2022-08-19T02:22:26;100354.47;;;18.30;76.99
70781;BME280;59514;48.810;2.134;2022-08-19T02:24:52;100365.88;;;18.37;76.15
70781;BME280;59514;48.810;2.134;2022-08-19T02:27:17;100355.53;;;18.44;76.28
70781;BME280;59514;48.810;2.134;2022-08-19T02:29:43;100355.00;;;18.47;76.37
70781;BME280;59514;48.810;2.134;2022-08-19T02:32:10;100356.63;;;18.28;76.90
70781;BME280;59514;48.810;2.134;2022-08-19T02:34:35;100350.41;;;18.22;77.26
70781;BME280;59514;48.810;2.134;2022-08-19T02:37:00;100347.44;;;18.08;77.89
70781;BME280;59514;48.810;2.134;2022-08-19T02:39:26;100353.16;;;18.12;77.50
70781;BME280;59514;48.810;2.134;2022-08-19T02:41:51;100359.97;;;17.84;78.70
70781;BME280;59514;48.810;2.134;2022-08-19T02:44:17;100355.34;;;18.05;78.16
70781;BME280;59514;48.810;2.134;2022-08-19T02:46:47;100351.22;;;18.18;77.19
70781;BME280;59514;48.810;2.134;2022-08-19T02:49:13;100351.75;;;18.25;77.35
70781;BME280;59514;48.810;2.134;2022-08-19T02:51:42;100351.75;;;18.25;76.45
70781;BME280;59514;48.810;2.134;2022-08-19T02:54:10;100349.59;;;18.22;76.89
70781;BME280;59514;48.810;2.134;2022-08-19T02:56:37;100359.97;;;17.89;78.30
70781;BME280;59514;48.810;2.134;2022-08-19T02:59:04;100356.19;;;17.85;78.85
70781;BME280;59514;48.810;2.134;2022-08-19T03:01:35;100351.81;;;17.94;78.16
70781;BME280;59514;48.810;2.134;2022-08-19T03:04:03;100344.72;;;18.03;77.97
70781;BME280;59514;48.810;2.134;2022-08-19T03:06:29;100351.78;;;18.15;77.10
70781;BME280;59514;48.810;2.134;2022-08-19T03:08:55;100353.69;;;18.19;76.97
70781;BME280;59514;48.810;2.134;2022-08-19T03:11:30;100355.56;;;18.14;77.34
70781;BME280;59514;48.810;2.134;2022-08-19T03:13:56;100357.81;;;17.91;78.05
70781;BME280;59514;48.810;2.134;2022-08-19T03:16:24;100364.31;;;17.95;78.22
70781;BME280;59514;48.810;2.134;2022-08-19T03:18:50;100368.13;;;17.89;78.29
70781;BME280;59514;48.810;2.134;2022-08-19T03:21:18;100362.41;;;17.91;77.89
70781;BME280;59514;48.810;2.134;2022-08-19T03:23:44;100354.00;;;17.97;77.55
70781;BME280;59514;48.810;2.134;2022-08-19T03:26:09;100349.91;;;17.70;79.28
70781;BME280;59514;48.810;2.134;2022-08-19T03:28:35;100352.91;;;17.78;78.66
70781;BME280;59514;48.810;2.134;2022-08-19T03:31:07;100352.38;;;17.81;77.97
70781;BME280;59514;48.810;2.134;2022-08-19T03:33:33;100354.25;;;17.76;78.46
70781;BME280;59514;48.810;2.134;2022-08-19T03:36:13;100357.25;;;17.84;78.76
70781;BME280;59514;48.810;2.134;2022-08-19T03:38:50;100357.25;;;17.84;78.16
70781;BME280;59514;48.810;2.134;2022-08-19T03:41:19;100354.25;;;17.66;78.82
70781;BME280;59514;48.810;2.134;2022-08-19T03:43:45;100352.94;;;17.63;78.82
70781;BME280;59514;48.810;2.134;2022-08-19T03:46:17;100350.22;;;17.63;79.53
70781;BME280;59514;48.810;2.134;2022-08-19T03:48:43;100354.53;;;17.84;78.84
70781;BME280;59514;48.810;2.134;2022-08-19T03:51:26;100348.84;;;17.91;78.42
70781;BME280;59514;48.810;2.134;2022-08-19T03:53:53;100352.38;;;17.91;78.62
70781;BME280;59514;48.810;2.134;2022-08-19T03:56:19;100346.38;;;17.94;78.10
70781;BME280;59514;48.810;2.134;2022-08-19T03:58:45;100350.22;;;17.83;78.54
70781;BME280;59514;48.810;2.134;2022-08-19T04:01:14;100350.19;;;17.88;78.21
70781;BME280;59514;48.810;2.134;2022-08-19T04:03:39;100352.91;;;17.78;78.61
70781;BME280;59514;48.810;2.134;2022-08-19T04:06:22;100347.75;;;17.87;78.33
70781;BME280;59514;48.810;2.134;2022-08-19T04:08:50;100343.94;;;17.83;78.34
70781;BME280;59514;48.810;2.134;2022-08-19T04:11:18;100349.13;;;17.89;78.67
70781;BME280;59514;48.810;2.134;2022-08-19T04:13:46;100340.41;;;17.72;78.95
70781;BME280;59514;48.810;2.134;2022-08-19T04:16:11;100349.66;;;17.86;78.49
70781;BME280;59514;48.810;2.134;2022-08-19T04:18:38;100338.78;;;17.86;78.81
70781;BME280;59514;48.810;2.134;2022-08-19T04:21:06;100334.19;;;17.67;79.05
70781;BME280;59514;48.810;2.134;2022-08-19T04:23:32;100340.97;;;17.54;80.15
70781;BME280;59514;48.810;2.134;2022-08-19T04:25:58;100338.25;;;17.69;79.60
70781;BME280;59514;48.810;2.134;2022-08-19T04:28:24;100344.78;;;17.93;78.73
70781;BME280;59514;48.810;2.134;2022-08-19T04:30:52;100340.91;;;18.15;77.82
70781;BME280;59514;48.810;2.134;2022-08-19T04:33:20;100340.09;;;18.14;78.67
70781;BME280;59514;48.810;2.134;2022-08-19T04:35:48;100353.94;;;18.23;78.22
70781;BME280;59514;48.810;2.134;2022-08-19T04:38:16;100347.13;;;18.35;77.26
70781;BME280;59514;48.810;2.134;2022-08-19T04:40:46;100353.91;;;18.33;77.87
70781;BME280;59514;48.810;2.134;2022-08-19T04:43:31;100356.06;;;18.36;77.26
70781;BME280;59514;48.810;2.134;2022-08-19T04:45:57;100354.44;;;18.40;77.70
70781;BME280;59514;48.810;2.134;2022-08-19T04:48:23;100365.06;;;18.31;78.32
70781;BME280;59514;48.810;2.134;2022-08-19T04:50:56;100367.53;;;18.23;78.42
70781;BME280;59514;48.810;2.134;2022-08-19T04:53:31;100369.16;;;18.29;78.59
70781;BME280;59514;48.810;2.134;2022-08-19T04:55:58;100370.50;;;18.31;79.07
70781;BME280;59514;48.810;2.134;2022-08-19T04:58:25;100376.50;;;18.33;78.50
70781;BME280;59514;48.810;2.134;2022-08-19T05:00:51;100376.75;;;18.37;78.87
70781;BME280;59514;48.810;2.134;2022-08-19T05:03:17;100374.00;;;18.42;78.39
70781;BME280;59514;48.810;2.134;2022-08-19T05:05:44;100371.31;;;18.47;78.44
70781;BME280;59514;48.810;2.134;2022-08-19T05:08:10;100369.38;;;18.52;78.27
70781;BME280;59514;48.810;2.134;2022-08-19T05:10:37;100381.94;;;18.43;78.42
70781;BME280;59514;48.810;2.134;2022-08-19T05:13:03;100376.19;;;18.40;78.58
70781;BME280;59514;48.810;2.134;2022-08-19T05:15:29;100375.09;;;18.36;78.89
70781;BME280;59514;48.810;2.134;2022-08-19T05:17:54;100380.31;;;18.12;79.78
70781;BME280;59514;48.810;2.134;2022-08-19T05:20:38;100368.59;;;18.22;79.76
70781;BME280;59514;48.810;2.134;2022-08-19T05:23:22;100373.50;;;18.25;79.07
70781;BME280;59514;48.810;2.134;2022-08-19T05:25:48;100382.47;;;18.20;79.68
70781;BME280;59514;48.810;2.134;2022-08-19T05:28:14;100376.78;;;18.17;79.91
70781;BME280;59514;48.810;2.134;2022-08-19T05:30:39;100380.31;;;18.27;79.24
70781;BME280;59514;48.810;2.134;2022-08-19T05:33:06;100385.75;;;18.02;80.17
70781;BME280;59514;48.810;2.134;2022-08-19T05:35:36;100389.59;;;17.91;81.18
70781;BME280;59514;48.810;2.134;2022-08-19T05:38:01;100390.91;;;18.03;81.61
70781;BME280;59514;48.810;2.134;2022-08-19T05:40:26;100387.91;;;18.20;80.73
70781;BME280;59514;48.810;2.134;2022-08-19T05:42:52;100376.50;;;18.23;80.57
70781;BME280;59514;48.810;2.134;2022-08-19T05:45:18;100395.78;;;18.22;81.22
70781;BME280;59514;48.810;2.134;2022-08-19T05:47:43;100394.72;;;18.23;82.04
70781;BME280;59514;48.810;2.134;2022-08-19T05:50:10;100389.81;;;18.25;81.79
70781;BME280;59514;48.810;2.134;2022-08-19T05:52:37;100391.19;;;18.12;82.99
70781;BME280;59514;48.810;2.134;2022-08-19T05:55:03;100396.34;;;18.19;82.93
70781;BME280;59514;48.810;2.134;2022-08-19T05:57:29;100391.16;;;18.22;83.21
70781;BME280;59514;48.810;2.134;2022-08-19T05:59:55;100399.59;;;18.31;83.09
70781;BME280;59514;48.810;2.134;2022-08-19T06:02:21;100403.94;;;18.27;83.39
70781;BME280;59514;48.810;2.134;2022-08-19T06:04:47;100398.25;;;18.23;83.67
70781;BME280;59514;48.810;2.134;2022-08-19T06:07:12;100400.69;;;18.35;83.49
70781;BME280;59514;48.810;2.134;2022-08-19T06:09:38;100394.41;;;18.34;83.13
70781;BME280;59514;48.810;2.134;2022-08-19T06:12:03;100407.75;;;18.51;82.27
70781;BME280;59514;48.810;2.134;2022-08-19T06:14:31;100411.56;;;18.45;82.54
70781;BME280;59514;48.810;2.134;2022-08-19T06:16:57;100409.38;;;18.27;83.75
70781;BME280;59514;48.810;2.134;2022-08-19T06:19:25;100411.28;;;18.41;83.77
70781;BME280;59514;48.810;2.134;2022-08-19T06:21:51;100405.56;;;18.48;82.61
70781;BME280;59514;48.810;2.134;2022-08-19T06:24:20;100407.47;;;18.37;83.40
70781;BME280;59514;48.810;2.134;2022-08-19T06:26:48;100407.47;;;18.32;83.66
70781;BME280;59514;48.810;2.134;2022-08-19T06:29:15;100409.91;;;18.24;84.31
70781;BME280;59514;48.810;2.134;2022-08-19T06:31:44;100425.13;;;18.30;84.27
70781;BME280;59514;48.810;2.134;2022-08-19T06:34:10;100422.94;;;18.42;83.67
70781;BME280;59514;48.810;2.134;2022-08-19T06:36:39;100417.50;;;18.52;82.69
70781;BME280;59514;48.810;2.134;2022-08-19T06:39:12;100414.25;;;18.50;83.52
70781;BME280;59514;48.810;2.134;2022-08-19T06:41:41;100416.47;;;18.43;83.14
70781;BME280;59514;48.810;2.134;2022-08-19T06:44:07;100414.25;;;18.35;84.06
70781;BME280;59514;48.810;2.134;2022-08-19T06:46:32;100419.16;;;18.33;83.96
70781;BME280;59514;48.810;2.134;2022-08-19T06:48:58;100414.25;;;18.50;83.29
70781;BME280;59514;48.810;2.134;2022-08-19T06:51:24;100419.91;;;18.63;82.94
70781;BME280;59514;48.810;2.134;2022-08-19T06:53:51;100420.22;;;18.62;83.10
70781;BME280;59514;48.810;2.134;2022-08-19T06:56:21;100412.63;;;18.49;83.18
70781;BME280;59514;48.810;2.134;2022-08-19T06:58:47;100416.41;;;18.58;83.23
70781;BME280;59514;48.810;2.134;2022-08-19T07:01:16;100425.97;;;18.45;84.09
70781;BME280;59514;48.810;2.134;2022-08-19T07:03:41;100436.00;;;18.50;83.98
70781;BME280;59514;48.810;2.134;2022-08-19T07:06:09;100428.09;;;18.68;82.56
70781;BME280;59514;48.810;2.134;2022-08-19T07:08:36;100430.25;;;18.76;82.40
70781;BME280;59514;48.810;2.134;2022-08-19T07:11:05;100431.59;;;18.74;82.67
70781;BME280;59514;48.810;2.134;2022-08-19T07:13:32;100428.06;;;18.73;82.82
70781;BME280;59514;48.810;2.134;2022-08-19T07:18:30;100442.44;;;18.84;82.16
70781;BME280;59514;48.810;2.134;2022-08-19T07:21:08;100435.97;;;18.70;82.82
70781;BME280;59514;48.810;2.134;2022-08-19T07:23:33;100424.50;;;18.83;82.30
70781;BME280;59514;48.810;2.134;2022-08-19T07:26:06;100423.31;;;18.99;81.27
70781;BME280;59514;48.810;2.134;2022-08-19T07:28:31;100433.13;;;19.00;81.57
70781;BME280;59514;48.810;2.134;2022-08-19T07:30:57;100440.53;;;18.89;82.11
70781;BME280;59514;48.810;2.134;2022-08-19T07:33:22;100428.19;;;19.07;81.23
70781;BME280;59514;48.810;2.134;2022-08-19T07:35:47;100432.56;;;19.03;81.21
70781;BME280;59514;48.810;2.134;2022-08-19T07:38:15;100430.88;;;19.17;80.65
70781;BME280;59514;48.810;2.134;2022-08-19T07:40:40;100432.47;;;19.23;80.06
70781;BME280;59514;48.810;2.134;2022-08-19T07:43:06;100431.41;;;19.19;80.36
70781;BME280;59514;48.810;2.134;2022-08-19T07:45:31;100429.25;;;19.16;80.52
70781;BME280;59514;48.810;2.134;2022-08-19T07:47:57;100423.00;;;19.16;80.31
70781;BME280;59514;48.810;2.134;2022-08-19T07:50:22;100427.59;;;19.20;80.32
70781;BME280;59514;48.810;2.134;2022-08-19T07:52:48;100430.78;;;19.37;80.32
70781;BME280;59514;48.810;2.134;2022-08-19T07:55:16;100430.75;;;19.47;79.64
70781;BME280;59514;48.810;2.134;2022-08-19T07:57:42;100436.97;;;19.53;79.16
70781;BME280;59514;48.810;2.134;2022-08-19T08:00:07;100429.38;;;19.50;79.16
70781;BME280;59514;48.810;2.134;2022-08-19T08:02:33;100429.06;;;19.56;78.91
70781;BME280;59514;48.810;2.134;2022-08-19T08:04:58;100424.69;;;19.55;78.78
70781;BME280;59514;48.810;2.134;2022-08-19T08:07:42;100437.81;;;19.48;79.02
70781;BME280;59514;48.810;2.134;2022-08-19T08:10:26;100436.13;;;19.57;79.34
70781;BME280;59514;48.810;2.134;2022-08-19T08:12:52;100430.72;;;19.52;79.43
70781;BME280;59514;48.810;2.134;2022-08-19T08:15:17;100431.56;;;19.48;79.48
70781;BME280;59514;48.810;2.134;2022-08-19T08:17:44;100438.06;;;19.52;79.42
70781;BME280;59514;48.810;2.134;2022-08-19T08:20:10;100439.97;;;19.51;78.94
70781;BME280;59514;48.810;2.134;2022-08-19T08:22:35;100437.44;;;19.65;78.96
70781;BME280;59514;48.810;2.134;2022-08-19T08:25:22;100446.66;;;19.74;78.44
70781;BME280;59514;48.810;2.134;2022-08-19T08:27:48;100451.22;;;19.78;78.26
70781;BME280;59514;48.810;2.134;2022-08-19T08:30:26;100447.72;;;19.73;78.41
70781;BME280;59514;48.810;2.134;2022-08-19T08:32:52;100449.66;;;19.72;77.58
70781;BME280;59514;48.810;2.134;2022-08-19T08:35:20;100446.41;;;19.70;77.77
70781;BME280;59514;48.810;2.134;2022-08-19T08:37:51;100443.63;;;19.75;77.63
70781;BME280;59514;48.810;2.134;2022-08-19T08:43:13;100462.09;;;19.84;77.42
70781;BME280;59514;48.810;2.134;2022-08-19T08:45:46;100462.41;;;19.82;77.63
70781;BME280;59514;48.810;2.134;2022-08-19T08:48:24;100461.50;;;19.92;77.41
70781;BME280;59514;48.810;2.134;2022-08-19T08:50:57;100447.56;;;19.98;77.16
70781;BME280;59514;48.810;2.134;2022-08-19T08:53:24;100453.16;;;20.12;76.63
70781;BME280;59514;48.810;2.134;2022-08-19T08:55:50;100446.13;;;20.06;76.49
70781;BME280;59514;48.810;2.134;2022-08-19T08:58:26;100445.00;;;20.07;76.40
70781;BME280;59514;48.810;2.134;2022-08-19T09:00:53;100450.97;;;20.14;75.87
70781;BME280;59514;48.810;2.134;2022-08-19T09:03:24;100447.41;;;20.13;75.78
70781;BME280;59514;48.810;2.134;2022-08-19T09:06:00;100456.91;;;20.21;75.32
70781;BME280;59514;48.810;2.134;2022-08-19T09:08:36;100445.69;;;20.27;75.63
70781;BME280;59514;48.810;2.134;2022-08-19T09:11:08;100449.91;;;20.43;74.71
70781;BME280;59514;48.810;2.134;2022-08-19T09:16:10;100450.13;;;20.47;74.31
70781;BME280;59514;48.810;2.134;2022-08-19T09:18:46;100439.72;;;20.54;73.86
70781;BME280;59514;48.810;2.134;2022-08-19T09:21:13;100444.41;;;20.72;73.38
70781;BME280;59514;48.810;2.134;2022-08-19T09:23:40;100440.06;;;20.71;73.40
70781;BME280;59514;48.810;2.134;2022-08-19T09:26:17;100440.41;;;20.88;72.50
70781;BME280;59514;48.810;2.134;2022-08-19T09:28:44;100436.69;;;20.79;72.75
70781;BME280;59514;48.810;2.134;2022-08-19T09:31:12;100427.78;;;20.92;72.48
70781;BME280;59514;48.810;2.134;2022-08-19T09:33:38;100433.34;;;20.87;72.47
70781;BME280;59514;48.810;2.134;2022-08-19T09:36:06;100436.81;;;20.93;72.63
70781;BME280;59514;48.810;2.134;2022-08-19T09:38:32;100439.84;;;20.91;72.25
70781;BME280;59514;48.810;2.134;2022-08-19T09:41:03;100444.34;;;21.01;72.20
70781;BME280;59514;48.810;2.134;2022-08-19T09:43:29;100448.34;;;21.13;71.16
70781;BME280;59514;48.810;2.134;2022-08-19T09:45:54;100446.16;;;21.10;71.29
70781;BME280;59514;48.810;2.134;2022-08-19T09:48:20;100450.41;;;21.21;71.00
70781;BME280;59514;48.810;2.134;2022-08-19T09:50:46;100441.44;;;21.39;70.37
70781;BME280;59514;48.810;2.134;2022-08-19T09:53:11;100440.81;;;21.42;69.96
70781;BME280;59514;48.810;2.134;2022-08-19T09:55:42;100432.63;;;21.42;70.25
70781;BME280;59514;48.810;2.134;2022-08-19T09:58:07;100432.34;;;21.44;70.63
70781;BME280;59514;48.810;2.134;2022-08-19T10:00:33;100439.66;;;21.49;70.27
70781;BME280;59514;48.810;2.134;2022-08-19T10:02:58;100444.59;;;21.47;70.03
70781;BME280;59514;48.810;2.134;2022-08-19T10:05:24;100439.56;;;21.54;70.71
70781;BME280;59514;48.810;2.134;2022-08-19T10:08:09;100446.06;;;21.39;70.91
70781;BME280;59514;48.810;2.134;2022-08-19T10:10:35;100443.66;;;21.37;71.29
70781;BME280;59514;48.810;2.134;2022-08-19T10:13:01;100444.44;;;21.38;71.59
70781;BME280;59514;48.810;2.134;2022-08-19T10:15:26;100430.03;;;21.32;71.34
70781;BME280;59514;48.810;2.134;2022-08-19T10:17:52;100430.94;;;21.47;70.88
70781;BME280;59514;48.810;2.134;2022-08-19T10:20:17;100439.66;;;21.49;70.46
70781;BME280;59514;48.810;2.134;2022-08-19T10:22:43;100427.41;;;21.65;70.32
70781;BME280;59514;48.810;2.134;2022-08-19T10:25:09;100439.00;;;21.75;69.68
70781;BME280;59514;48.810;2.134;2022-08-19T10:27:34;100420.53;;;21.86;69.22
70781;BME280;59514;48.810;2.134;2022-08-19T10:30:00;100423.31;;;21.99;69.02
70781;BME280;59514;48.810;2.134;2022-08-19T10:32:26;100420.19;;;22.06;69.45
70781;BME280;59514;48.810;2.134;2022-08-19T10:34:52;100426.78;;;22.05;69.21
70781;BME280;59514;48.810;2.134;2022-08-19T10:37:17;100429.00;;;22.03;68.91
70781;BME280;59514;48.810;2.134;2022-08-19T10:39:45;100430.09;;;22.02;68.76
70781;BME280;59514;48.810;2.134;2022-08-19T10:42:13;100423.94;;;22.10;68.50
70781;BME280;59514;48.810;2.134;2022-08-19T10:44:39;100438.84;;;22.17;68.24
70781;BME280;59514;48.810;2.134;2022-08-19T10:47:05;100431.13;;;22.06;68.46
70781;BME280;59514;48.810;2.134;2022-08-19T10:49:31;100432.31;;;22.00;68.38
70781;BME280;59514;48.810;2.134;2022-08-19T10:51:57;100429.28;;;22.01;68.83
70781;BME280;59514;48.810;2.134;2022-08-19T10:54:41;100425.50;;;22.16;68.26
70781;BME280;59514;48.810;2.134;2022-08-19T10:57:25;100416.41;;;22.34;68.11
70781;BME280;59514;48.810;2.134;2022-08-19T10:59:55;100410.03;;;22.39;68.09
70781;BME280;59514;48.810;2.134;2022-08-19T11:02:20;100413.28;;;22.41;67.29
70781;BME280;59514;48.810;2.134;2022-08-19T11:04:46;100408.53;;;22.46;67.62
70781;BME280;59514;48.810;2.134;2022-08-19T11:07:12;100417.56;;;22.47;66.76
70781;BME280;59514;48.810;2.134;2022-08-19T11:09:40;100413.28;;;22.41;64.79
70781;BME280;59514;48.810;2.134;2022-08-19T11:12:07;100418.75;;;22.41;64.72
70781;BME280;59514;48.810;2.134;2022-08-19T11:14:33;100416.31;;;22.39;64.48
70781;BME280;59514;48.810;2.134;2022-08-19T11:16:59;100419.66;;;22.36;64.55
70781;BME280;59514;48.810;2.134;2022-08-19T11:19:24;100415.69;;;22.28;64.33
70781;BME280;59514;48.810;2.134;2022-08-19T11:21:50;100421.75;;;22.25;64.83
70781;BME280;59514;48.810;2.134;2022-08-19T11:24:19;100410.31;;;22.23;64.72
70781;BME280;59514;48.810;2.134;2022-08-19T11:26:46;100403.53;;;22.21;65.02
70781;BME280;59514;48.810;2.134;2022-08-19T11:29:14;100411.13;;;22.24;65.24
70781;BME280;59514;48.810;2.134;2022-08-19T11:31:43;100405.66;;;22.24;65.00
70781;BME280;59514;48.810;2.134;2022-08-19T11:34:13;100401.81;;;22.25;65.42
70781;BME280;59514;48.810;2.134;2022-08-19T11:36:42;100405.13;;;22.22;65.38
70781;BME280;59514;48.810;2.134;2022-08-19T11:39:09;100410.63;;;22.22;65.81
70781;BME280;59514;48.810;2.134;2022-08-19T11:41:35;100409.28;;;22.19;65.98
70781;BME280;59514;48.810;2.134;2022-08-19T11:44:01;100412.31;;;22.18;65.53
70781;BME280;59514;48.810;2.134;2022-08-19T11:46:28;100412.84;;;22.20;65.64
70781;BME280;59514;48.810;2.134;2022-08-19T11:48:55;100416.09;;;22.22;65.08
70781;BME280;59514;48.810;2.134;2022-08-19T11:51:22;100416.09;;;22.22;64.80
70781;BME280;59514;48.810;2.134;2022-08-19T11:53:49;100409.50;;;22.23;64.54
70781;BME280;59514;48.810;2.134;2022-08-19T11:56:16;100412.44;;;22.26;64.65
70781;BME280;59514;48.810;2.134;2022-08-19T11:58:42;100414.06;;;22.27;64.19
70781;BME280;59514;48.810;2.134;2022-08-19T12:01:09;100411.31;;;22.27;63.98
70781;BME280;59514;48.810;2.134;2022-08-19T12:03:36;100411.25;;;22.33;64.18
70781;BME280;59514;48.810;2.134;2022-08-19T12:06:07;100415.28;;;22.35;64.10
70781;BME280;59514;48.810;2.134;2022-08-19T12:08:32;100414.50;;;22.35;64.03
70781;BME280;59514;48.810;2.134;2022-08-19T12:10:58;100413.16;;;22.32;64.33
70781;BME280;59514;48.810;2.134;2022-08-19T12:13:25;100418.13;;;22.30;64.29
70781;BME280;59514;48.810;2.134;2022-08-19T12:15:51;100408.72;;;22.36;64.34
70781;BME280;59514;48.810;2.134;2022-08-19T12:18:18;100405.59;;;22.43;64.40
70781;BME280;59514;48.810;2.134;2022-08-19T12:20:43;100408.59;;;22.41;64.54
70781;BME280;59514;48.810;2.134;2022-08-19T12:23:09;100414.06;;;22.41;64.82
70781;BME280;59514;48.810;2.134;2022-08-19T12:25:44;100415.03;;;22.50;64.63
70781;BME280;59514;48.810;2.134;2022-08-19T12:28:18;100413.91;;;22.51;64.85
70781;BME280;59514;48.810;2.134;2022-08-19T12:30:44;100411.25;;;22.46;64.68
70781;BME280;59514;48.810;2.134;2022-08-19T12:33:09;100409.03;;;22.48;64.57
70781;BME280;59514;48.810;2.134;2022-08-19T12:35:35;100405.59;;;22.56;64.68
70781;BME280;59514;48.810;2.134;2022-08-19T12:38:00;100412.47;;;22.54;64.88
70781;BME280;59514;48.810;2.134;2022-08-19T12:40:27;100410.91;;;22.66;64.01
70781;BME280;59514;48.810;2.134;2022-08-19T12:42:53;100404.63;;;22.79;63.50
70781;BME280;59514;48.810;2.134;2022-08-19T12:45:19;100398.72;;;22.99;63.05
70781;BME280;59514;48.810;2.134;2022-08-19T12:47:44;100389.91;;;23.52;61.54
70781;BME280;59514;48.810;2.134;2022-08-19T12:50:11;100391.59;;;24.28;59.60
70781;BME280;59514;48.810;2.134;2022-08-19T12:52:36;100395.59;;;25.00;56.89
70781;BME280;59514;48.810;2.134;2022-08-19T12:55:03;100396.91;;;25.03;56.03
70781;BME280;59514;48.810;2.134;2022-08-19T12:57:30;100392.31;;;24.72;56.88
70781;BME280;59514;48.810;2.134;2022-08-19T12:59:56;100389.97;;;24.57;57.17
70781;BME280;59514;48.810;2.134;2022-08-19T13:02:21;100378.34;;;24.60;58.00